Saint George, Canada
Current Conditions -  °F | °C
As of 9:00 AM on Friday 28 Nov 2014 (Local Time) from CYSJ Reporting Station
Few Clouds Few Clouds  
Wind Chill: -16°   Ceiling: Unl
Heat Index: -8°   Visibility: 15mi
Dew Point: -11°   Wind: 14mph
Humidity: 79%   Direction: 20°NNE
Pressure: 29.99"   Gusts: NA
Location:  45.13°N, 66.82°W
Report Text: CYSJ 281300Z 02012KT 15SM FEW020 FEW250 M08/M11 A2999 RMK SC1CI1 SLP162
Loading
Personal Weather Stations






























Interactive Weather Map New forecast layout! Learn more

10-Day Weather Forecast

Advertisements
Track Severe Weather on mobile